Time;durP1;ratioP1;P1;durP2;ratioP2;P2;SDS_P1;SDS_P2;PMS_P1;PMS_P2;Temp;Humidity;BMP_temperature;BMP_pressure;BME280_temperature;BME280_humidity;BME280_pressure;Samples;Min_cycle;Max_cycle;Signal;HPM_P1;HPM_P2
2023/09/02 00:01:22;;;;;;;5.33;2.40;;;13.90;99.90;;;;;;5134248;28;20080;-40
2023/09/02 00:03:47;;;;;;;5.80;2.40;;;13.90;99.90;;;;;;5134269;28;20634;-40
2023/09/02 00:06:13;;;;;;;4.30;2.57;;;13.90;99.90;;;;;;5134497;28;20035;-39
2023/09/02 00:08:39;;;;;;;7.30;2.95;;;13.90;99.90;;;;;;5116386;28;20058;-40
2023/09/02 00:11:04;;;;;;;5.00;2.37;;;13.90;99.90;;;;;;5134424;28;20043;-40
2023/09/02 00:13:30;;;;;;;5.37;2.37;;;13.90;99.90;;;;;;5134154;28;20039;-40
2023/09/02 00:15:56;;;;;;;4.87;2.60;;;13.90;99.90;;;;;;5134325;28;20122;-40
2023/09/02 00:18:21;;;;;;;5.30;2.50;;;13.90;99.90;;;;;;5134139;28;20288;-40
2023/09/02 00:20:47;;;;;;;5.37;2.43;;;13.90;99.90;;;;;;5134526;28;20360;-40
2023/09/02 00:23:12;;;;;;;5.13;2.00;;;13.80;99.90;;;;;;5134253;28;20292;-40
2023/09/02 00:25:38;;;;;;;4.80;2.37;;;13.90;99.90;;;;;;5134299;28;20043;-39
2023/09/02 00:28:04;;;;;;;5.87;2.67;;;13.80;99.90;;;;;;5116007;28;20453;-40
2023/09/02 00:30:29;;;;;;;4.55;2.10;;;13.80;99.90;;;;;;5134157;28;20051;-39
2023/09/02 00:32:55;;;;;;;5.37;2.40;;;13.80;99.90;;;;;;5134004;28;20051;-40
2023/09/02 00:35:21;;;;;;;6.43;2.70;;;13.80;99.90;;;;;;5134199;28;20043;-40
2023/09/02 00:37:47;;;;;;;6.53;2.50;;;13.80;99.90;;;;;;5134116;28;20051;-40
2023/09/02 00:40:17;;;;;;;4.82;2.40;;;13.80;99.90;;;;;;5116137;28;20043;-39
2023/09/02 00:42:44;;;;;;;6.60;2.42;;;13.80;99.90;;;;;;5133965;28;20039;-40
2023/09/02 00:45:10;;;;;;;6.28;2.45;;;13.80;99.90;;;;;;5134100;27;20047;-39
2023/09/02 00:47:36;;;;;;;6.28;2.90;;;13.80;99.90;;;;;;5137194;27;20065;-40
2023/09/02 00:50:02;;;;;;;5.30;2.30;;;13.80;99.90;;;;;;5137917;27;20107;-40
2023/09/02 00:52:31;;;;;;;4.60;2.42;;;13.70;99.90;;;;;;5137885;27;20422;-39
2023/09/02 00:54:57;;;;;;;5.82;2.47;;;13.80;99.90;;;;;;5137931;27;20047;-40
2023/09/02 00:57:23;;;;;;;5.73;3.10;;;13.80;99.90;;;;;;5137776;27;20384;-39
2023/09/02 00:59:48;;;;;;;6.97;2.70;;;13.70;99.90;;;;;;5137615;27;20083;-39
2023/09/02 01:02:14;;;;;;;7.03;2.43;;;13.70;99.90;;;;;;5137451;27;20143;-40
2023/09/02 01:04:40;;;;;;;5.30;2.53;;;13.70;99.90;;;;;;5137942;27;20043;-39
2023/09/02 01:07:07;;;;;;;4.90;2.35;;;13.70;99.90;;;;;;5119493;27;20054;-40
2023/09/02 01:09:33;;;;;;;5.18;2.92;;;13.80;99.90;;;;;;5137397;27;20043;-40
2023/09/02 01:11:59;;;;;;;6.68;3.30;;;13.70;99.90;;;;;;5137427;27;20134;-39
2023/09/02 01:14:25;;;;;;;5.03;2.70;;;13.70;99.90;;;;;;5137299;27;20126;-40
2023/09/02 01:16:51;;;;;;;5.47;2.47;;;13.60;99.90;;;;;;5137333;27;20086;-40
2023/09/02 01:19:18;;;;;;;4.80;2.60;;;13.60;99.90;;;;;;5137585;27;20095;-39
2023/09/02 01:21:50;;;;;;;5.82;2.90;;;13.60;99.90;;;;;;5137249;27;20043;-39
2023/09/02 01:24:19;;;;;;;5.20;2.85;;;13.50;99.90;;;;;;5137298;27;20055;-39
2023/09/02 01:27:05;;;;;;;5.32;2.50;;;13.50;99.90;;;;;;5137165;27;20076;-39
2023/09/02 01:29:41;;;;;;;5.47;2.75;;;13.50;99.90;;;;;;5137253;27;20047;-40
2023/09/02 01:32:09;;;;;;;4.88;2.40;;;13.50;99.90;;;;;;5153563;27;20126;-39
2023/09/02 01:34:37;;;;;;;3.92;1.67;;;13.50;99.90;;;;;;5118890;27;20047;-40
2023/09/02 01:37:07;;;;;;;4.22;1.73;;;13.50;99.90;;;;;;5136963;27;20051;-40
2023/09/02 01:39:35;;;;;;;2.55;1.33;;;13.50;99.90;;;;;;5136963;27;20051;-40
2023/09/02 01:42:01;;;;;;;2.53;1.30;;;13.40;99.90;;;;;;5118467;27;20051;-40
2023/09/02 01:44:29;;;;;;;3.70;1.57;;;13.50;99.90;;;;;;5136832;27;20044;-40
2023/09/02 01:46:55;;;;;;;3.30;1.50;;;13.50;99.90;;;;;;5136766;27;20280;-40
2023/09/02 01:49:21;;;;;;;2.88;1.40;;;13.40;99.90;;;;;;5136527;27;20039;-40
2023/09/02 01:51:48;;;;;;;3.30;1.60;;;13.40;99.90;;;;;;5136558;27;20591;-40
2023/09/02 01:54:14;;;;;;;4.00;1.88;;;13.40;99.90;;;;;;5136464;27;20043;-40
2023/09/02 01:56:40;;;;;;;5.03;2.17;;;13.40;99.90;;;;;;5136168;27;20043;-39
2023/09/02 01:59:06;;;;;;;4.65;2.20;;;13.40;99.90;;;;;;5136634;27;20075;-39
2023/09/02 02:01:34;;;;;;;5.30;2.58;;;13.50;99.90;;;;;;5136462;27;20164;-40
2023/09/02 02:04:32;;;;;;;4.38;2.10;;;13.50;99.90;;;;;;5136637;27;20051;-39
2023/09/02 02:07:03;;;;;;;4.70;2.33;;;13.50;99.90;;;;;;5132953;27;20108;-40
2023/09/02 02:09:57;;;;;;;5.90;2.20;;;13.50;99.90;;;;;;5136445;27;20203;-40
2023/09/02 02:12:24;;;;;;;5.93;2.20;;;13.40;99.90;;;;;;5134713;27;20380;-39
2023/09/02 02:14:50;;;;;;;5.22;2.60;;;13.40;99.90;;;;;;5136013;27;20047;-39
2023/09/02 02:17:16;;;;;;;4.90;2.30;;;13.40;99.90;;;;;;5135975;27;20039;-40
2023/09/02 02:19:44;;;;;;;5.20;2.10;;;13.40;99.90;;;;;;5136463;27;20465;-40
2023/09/02 02:22:10;;;;;;;4.25;1.58;;;13.40;99.90;;;;;;5136362;27;20449;-40
2023/09/02 02:24:36;;;;;;;4.15;1.83;;;13.30;99.90;;;;;;5135993;27;20043;-40
2023/09/02 02:27:02;;;;;;;4.22;1.88;;;13.30;99.90;;;;;;5136275;27;20043;-39
2023/09/02 02:29:28;;;;;;;4.82;2.20;;;13.30;99.90;;;;;;5135771;27;20054;-39
2023/09/02 02:31:54;;;;;;;6.53;2.15;;;13.30;99.90;;;;;;5135793;27;20032;-40
2023/09/02 02:34:20;;;;;;;4.80;1.88;;;13.20;99.90;;;;;;5135871;27;20518;-39
2023/09/02 02:36:45;;;;;;;4.13;1.80;;;13.20;99.90;;;;;;5135782;27;20094;-40
2023/09/02 02:39:11;;;;;;;3.85;1.67;;;13.20;99.90;;;;;;5135737;27;20115;-40
2023/09/02 02:41:37;;;;;;;5.60;2.50;;;13.10;99.90;;;;;;5135532;27;20371;-40
2023/09/02 02:44:03;;;;;;;4.90;2.03;;;13.10;99.90;;;;;;5135510;27;20043;-39
2023/09/02 02:46:29;;;;;;;4.20;1.90;;;13.10;99.90;;;;;;5117443;27;20138;-39
2023/09/02 02:48:55;;;;;;;5.50;2.33;;;13.10;99.90;;;;;;5136007;27;20134;-39
2023/09/02 02:51:20;;;;;;;4.63;2.07;;;13.10;99.90;;;;;;5135468;27;20618;-40
2023/09/02 02:53:46;;;;;;;5.03;2.03;;;13.00;99.90;;;;;;5117169;27;20047;-40
2023/09/02 02:56:12;;;;;;;3.93;1.90;;;13.00;99.90;;;;;;5135338;27;20043;-39
2023/09/02 02:58:37;;;;;;;5.05;2.17;;;13.00;99.90;;;;;;5135472;27;20049;-40
2023/09/02 03:01:08;;;;;;;4.43;2.03;;;12.90;99.90;;;;;;5135204;27;20042;-39
2023/09/02 03:03:38;;;;;;;3.78;1.85;;;12.90;99.90;;;;;;5135317;27;20054;-39
2023/09/02 03:06:04;;;;;;;4.30;2.10;;;12.90;99.90;;;;;;5135155;27;20042;-40
2023/09/02 03:08:30;;;;;;;;;;;12.90;99.90;;;;;;5134956;27;20039;-40
2023/09/02 03:10:57;;;;;;;3.83;1.83;;;12.80;99.90;;;;;;5134980;27;20294;-39
2023/09/02 03:13:26;;;;;;;3.72;1.80;;;12.80;99.90;;;;;;5135147;27;20050;-39
2023/09/02 03:15:55;;;;;;;4.15;2.03;;;12.70;99.90;;;;;;5116712;27;20050;-39
2023/09/02 03:18:21;;;;;;;8.52;1.88;;;12.80;99.90;;;;;;5135023;27;20053;-40
2023/09/02 03:20:47;;;;;;;4.18;1.80;;;12.70;99.90;;;;;;5134962;27;20045;-40
2023/09/02 03:23:14;;;;;;;3.75;1.80;;;12.70;99.90;;;;;;5135026;27;20477;-39
2023/09/02 03:25:40;;;;;;;2.63;1.30;;;12.70;99.90;;;;;;5134777;27;20492;-40
2023/09/02 03:28:05;;;;;;;2.72;1.05;;;12.70;99.90;;;;;;5134749;27;20043;-40
2023/09/02 03:30:31;;;;;;;3.20;1.30;;;12.80;99.90;;;;;;5135036;27;20039;-39
2023/09/02 03:32:58;;;;;;;2.92;1.10;;;12.70;99.90;;;;;;5134761;27;20377;-39
2023/09/02 03:35:23;;;;;;;2.67;1.25;;;12.70;99.90;;;;;;5134867;27;20400;-40
2023/09/02 03:37:49;;;;;;;6.22;1.77;;;12.80;99.90;;;;;;5135008;27;20047;-39
2023/09/02 03:40:15;;;;;;;3.17;1.40;;;12.80;99.90;;;;;;5134888;27;20178;-39
2023/09/02 03:42:41;;;;;;;4.90;1.80;;;12.80;99.90;;;;;;5134518;27;20047;-40
2023/09/02 03:45:09;;;;;;;3.90;1.58;;;12.80;99.90;;;;;;5134739;27;20047;-40
2023/09/02 03:47:35;;;;;;;5.72;2.10;;;12.80;99.90;;;;;;5134712;27;20050;-39
2023/09/02 03:50:02;;;;;;;3.88;1.95;;;12.70;99.90;;;;;;5134622;27;20161;-39
2023/09/02 03:52:28;;;;;;;3.85;1.90;;;12.80;99.90;;;;;;5116369;28;20069;-39
2023/09/02 03:54:54;;;;;;;3.90;1.90;;;12.80;99.90;;;;;;5134675;28;20126;-39
2023/09/02 03:57:20;;;;;;;5.82;3.10;;;12.80;99.90;;;;;;5134309;28;20065;-40
2023/09/02 03:59:45;;;;;;;7.73;2.40;;;12.80;99.90;;;;;;5134537;28;20047;-39
2023/09/02 04:02:11;;;;;;;6.07;3.10;;;12.80;99.90;;;;;;5134290;28;20062;-40
2023/09/02 04:04:37;;;;;;;6.40;2.97;;;12.80;99.90;;;;;;5134521;28;20043;-39
2023/09/02 04:07:03;;;;;;;5.60;2.27;;;12.80;99.90;;;;;;5134614;28;20047;-40
2023/09/02 04:09:28;;;;;;;5.80;2.83;;;12.80;99.90;;;;;;5116412;28;20058;-39
2023/09/02 04:11:54;;;;;;;4.67;2.30;;;12.80;99.90;;;;;;5134295;28;20039;-40
2023/09/02 04:14:20;;;;;;;4.70;2.50;;;12.80;99.90;;;;;;5134378;28;20625;-39
2023/09/02 04:16:46;;;;;;;4.85;2.35;;;12.80;99.90;;;;;;5134418;28;20087;-39
2023/09/02 04:19:11;;;;;;;5.13;2.40;;;12.80;99.90;;;;;;5134368;28;20147;-39
2023/09/02 04:21:37;;;;;;;4.87;2.20;;;12.70;99.90;;;;;;5137741;27;20036;-39
2023/09/02 04:24:03;;;;;;;5.13;2.20;;;12.80;99.90;;;;;;5138565;27;20066;-40
2023/09/02 04:26:28;;;;;;;5.00;1.90;;;12.70;99.90;;;;;;5138300;27;20043;-40
2023/09/02 04:28:55;;;;;;;4.20;1.70;;;12.80;99.90;;;;;;5138041;27;20092;-40
2023/09/02 04:31:22;;;;;;;3.75;1.50;;;12.70;99.90;;;;;;5138459;27;20544;-39
2023/09/02 04:33:47;;;;;;;;;;;12.70;99.90;;;;;;5138589;27;20121;-40
2023/09/02 04:36:13;;;;;;;2.97;1.30;;;12.60;99.90;;;;;;5138168;27;20312;-39
2023/09/02 04:38:39;;;;;;;2.87;1.03;;;12.60;99.90;;;;;;5138107;27;20130;-39
2023/09/02 04:41:08;;;;;;;1.88;1.00;;;12.60;99.90;;;;;;5137873;27;20046;-40
2023/09/02 04:43:38;;;;;;;2.25;0.90;;;12.60;99.90;;;;;;5137916;27;20126;-40
2023/09/02 04:46:04;;;;;;;4.07;1.25;;;12.60;99.90;;;;;;5138003;27;20049;-39
2023/09/02 04:48:30;;;;;;;3.65;1.38;;;12.60;99.90;;;;;;5138243;27;20066;-39
2023/09/02 04:50:56;;;;;;;2.95;1.27;;;12.60;99.90;;;;;;5138196;27;20069;-39
2023/09/02 04:53:22;;;;;;;3.65;1.48;;;12.60;99.90;;;;;;5137943;27;20085;-39
2023/09/02 04:55:49;;;;;;;3.17;1.48;;;12.50;99.90;;;;;;5137742;27;20093;-40
2023/09/02 04:58:16;;;;;;;5.82;1.90;;;12.60;99.90;;;;;;5138137;27;20051;-40
2023/09/02 05:00:42;;;;;;;5.68;1.92;;;12.60;99.90;;;;;;5138022;27;20043;-40
2023/09/02 05:03:08;;;;;;;4.13;1.75;;;12.60;99.90;;;;;;5137709;27;20059;-39
2023/09/02 05:05:34;;;;;;;;;;;12.60;99.90;;;;;;5138052;27;20488;-39
2023/09/02 05:08:00;;;;;;;4.30;1.63;;;12.60;99.90;;;;;;5137600;27;19919;-39
2023/09/02 05:10:26;;;;;;;3.97;1.90;;;12.60;99.90;;;;;;5137310;27;20551;-40
2023/09/02 05:12:52;;;;;;;4.80;1.80;;;12.70;99.90;;;;;;5137616;27;20035;-39
2023/09/02 05:15:18;;;;;;;5.03;2.00;;;12.70;99.90;;;;;;5137446;27;20039;-39
2023/09/02 05:17:44;;;;;;;4.85;1.90;;;12.60;99.90;;;;;;5137609;27;20054;-39
2023/09/02 05:20:10;;;;;;;5.37;2.20;;;12.60;99.90;;;;;;5137232;27;20055;-39
2023/09/02 05:22:35;;;;;;;4.97;2.00;;;12.60;99.90;;;;;;5136993;27;20499;-39
2023/09/02 05:25:02;;;;;;;4.27;1.87;;;12.60;99.90;;;;;;5137131;27;20039;-40
2023/09/02 05:27:28;;;;;;;3.92;1.80;;;12.70;99.90;;;;;;5137218;27;20043;-39
2023/09/02 05:29:54;;;;;;;4.50;1.60;;;12.60;99.90;;;;;;5137371;27;20043;-39
2023/09/02 05:32:20;;;;;;;4.93;1.92;;;12.60;99.90;;;;;;5136634;27;20462;-39
2023/09/02 05:34:46;;;;;;;4.30;1.60;;;12.70;99.90;;;;;;5118938;27;20545;-39
2023/09/02 05:37:12;;;;;;;3.25;1.45;;;12.70;99.90;;;;;;5137057;27;20086;-40
2023/09/02 05:39:38;;;;;;;3.70;1.45;;;12.70;99.90;;;;;;5118733;27;20391;-39
2023/09/02 05:42:04;;;;;;;4.70;1.90;;;12.70;99.90;;;;;;5137143;27;20043;-39
2023/09/02 05:44:29;;;;;;;5.40;1.83;;;12.70;99.90;;;;;;5137400;27;20563;-39
2023/09/02 05:46:55;;;;;;;5.30;2.33;;;12.70;99.90;;;;;;5136770;27;20308;-39
2023/09/02 05:49:21;;;;;;;5.03;2.00;;;12.70;99.90;;;;;;5136814;27;20387;-39
2023/09/02 05:51:46;;;;;;;4.87;2.13;;;12.70;99.90;;;;;;5118400;27;20043;-39
2023/09/02 05:54:12;;;;;;;5.37;2.27;;;12.70;99.90;;;;;;5136401;27;20039;-40
2023/09/02 05:56:38;;;;;;;4.87;2.10;;;12.70;99.90;;;;;;5136316;27;20050;-40
2023/09/02 05:59:05;;;;;;;6.07;2.47;;;12.70;99.90;;;;;;5136338;27;20399;-39
2023/09/02 06:01:31;;;;;;;;;;;12.80;99.90;;;;;;5136726;27;20092;-40
2023/09/02 06:03:56;;;;;;;5.25;2.30;;;12.80;99.90;;;;;;5136497;27;19919;-39
2023/09/02 06:06:22;;;;;;;5.37;2.40;;;12.90;99.90;;;;;;5136341;27;20039;-39
2023/09/02 06:08:48;;;;;;;5.80;2.50;;;12.90;99.90;;;;;;5118118;27;20444;-39
2023/09/02 06:11:15;;;;;;;4.72;2.05;;;13.00;99.90;;;;;;5136910;27;20539;-39
2023/09/02 06:13:40;;;;;;;4.93;2.20;;;13.10;99.90;;;;;;5117909;27;20050;-39
2023/09/02 06:16:07;;;;;;;4.97;1.98;;;13.10;99.90;;;;;;5136405;27;20365;-40
2023/09/02 06:18:34;;;;;;;5.22;2.42;;;13.20;99.90;;;;;;5136147;27;20039;-40
2023/09/02 06:21:08;;;;;;;5.80;2.65;;;13.20;99.90;;;;;;5136119;27;20055;-40
2023/09/02 06:23:33;;;;;;;6.13;2.85;;;13.40;99.90;;;;;;5117851;27;20055;-40
2023/09/02 06:26:00;;;;;;;6.30;2.93;;;13.50;99.90;;;;;;5136113;27;20054;-40
2023/09/02 06:28:27;;;;;;;5.90;3.20;;;13.60;99.90;;;;;;5136206;27;20042;-39
2023/09/02 06:30:53;;;;;;;;;;;13.70;99.90;;;;;;5118180;27;20043;-39
2023/09/02 06:33:23;;;;;;;7.45;3.33;;;13.80;99.90;;;;;;5135871;27;20268;-39
2023/09/02 06:35:50;;;;;;;7.50;3.55;;;13.80;99.90;;;;;;5117790;27;20051;-40
2023/09/02 06:38:16;;;;;;;7.05;3.58;;;14.00;99.90;;;;;;5135822;27;20035;-39
2023/09/02 06:40:42;;;;;;;8.48;4.15;;;14.30;99.90;;;;;;5135700;27;20050;-40
2023/09/02 06:43:07;;;;;;;9.20;4.30;;;14.40;99.90;;;;;;5135992;27;20122;-40
2023/09/02 06:45:33;;;;;;;7.75;3.38;;;14.50;99.90;;;;;;5135467;27;20082;-39
2023/09/02 06:47:59;;;;;;;8.77;4.20;;;14.50;99.90;;;;;;5135376;27;20412;-40
2023/09/02 06:50:27;;;;;;;7.10;3.83;;;14.50;99.90;;;;;;5135365;27;20043;-40
2023/09/02 06:52:52;;;;;;;7.65;3.70;;;14.60;99.90;;;;;;5135567;27;20424;-40
2023/09/02 06:55:18;;;;;;;12.33;5.13;;;14.60;99.90;;;;;;5135486;27;20130;-40
2023/09/02 06:57:44;;;;;;;10.30;4.97;;;14.60;99.90;;;;;;5135541;27;20055;-39
2023/09/02 07:00:11;;;;;;;9.40;4.70;;;14.60;99.90;;;;;;5135250;27;20087;-40
2023/09/02 07:02:36;;;;;;;9.60;4.72;;;14.60;99.90;;;;;;5134843;27;20058;-40
2023/09/02 07:05:02;;;;;;;8.70;4.53;;;14.70;99.90;;;;;;5134992;27;20051;-40
2023/09/02 07:07:28;;;;;;;8.20;4.05;;;14.70;99.90;;;;;;5135697;27;20415;-40
2023/09/02 07:09:54;;;;;;;9.00;4.90;;;14.70;99.90;;;;;;5135138;27;20392;-40
2023/09/02 07:12:20;;;;;;;9.75;4.75;;;14.70;99.90;;;;;;5135112;27;20047;-40
2023/09/02 07:14:45;;;;;;;9.23;4.60;;;14.80;99.90;;;;;;5134958;27;20047;-40
2023/09/02 07:17:11;;;;;;;10.75;5.03;;;15.00;99.90;;;;;;5135231;27;20080;-40
2023/09/02 07:19:37;;;;;;;11.37;4.97;;;15.20;99.90;;;;;;5134925;27;20202;-41
2023/09/02 07:22:02;;;;;;;8.50;4.55;;;15.30;99.90;;;;;;5134707;27;20099;-40
2023/09/02 07:24:28;;;;;;;10.57;5.55;;;15.30;99.90;;;;;;5134686;27;20491;-40
2023/09/02 07:26:54;;;;;;;9.52;4.85;;;15.30;99.90;;;;;;5116720;27;20425;-40
2023/09/02 07:29:20;;;;;;;9.53;4.80;;;15.30;99.90;;;;;;5134873;27;20050;-40
2023/09/02 07:31:46;;;;;;;10.02;5.15;;;15.40;99.90;;;;;;5134738;27;20695;-40
2023/09/02 07:34:11;;;;;;;10.77;5.15;;;15.50;99.90;;;;;;5134547;27;20096;-40
2023/09/02 07:36:37;;;;;;;11.87;4.87;;;15.40;99.90;;;;;;5134543;27;20049;-40
2023/09/02 07:39:03;;;;;;;11.13;5.35;;;15.50;99.90;;;;;;5134744;27;20078;-40
2023/09/02 07:41:28;;;;;;;10.07;5.32;;;15.50;99.90;;;;;;5134662;27;20046;-40
2023/09/02 07:43:54;;;;;;;10.63;5.73;;;15.60;99.90;;;;;;5134748;27;20043;-40
2023/09/02 07:46:20;;;;;;;10.80;5.33;;;15.60;99.90;;;;;;5134768;27;20046;-40
2023/09/02 07:48:49;;;;;;;10.43;5.60;;;15.70;99.90;;;;;;5134437;27;20039;-40
2023/09/02 07:51:18;;;;;;;10.23;5.07;;;15.70;99.90;;;;;;5116851;28;20272;-40
2023/09/02 07:53:45;;;;;;;9.32;4.55;;;15.80;99.90;;;;;;5134787;28;20125;-40
2023/09/02 07:56:11;;;;;;;9.77;4.95;;;15.80;99.90;;;;;;5134270;27;20085;-40
2023/09/02 07:58:37;;;;;;;9.48;4.68;;;15.90;99.90;;;;;;5134448;28;20440;-40
2023/09/02 08:01:02;;;;;;;13.55;5.80;;;15.90;99.90;;;;;;5134286;28;20047;-40
2023/09/02 08:03:28;;;;;;;9.67;4.87;;;16.00;99.90;;;;;;5134461;28;20141;-40
2023/09/02 08:05:54;;;;;;;11.30;4.90;;;16.00;99.90;;;;;;5134453;28;20277;-40
2023/09/02 08:08:21;;;;;;;10.95;4.85;;;16.10;99.90;;;;;;5134469;28;20047;-40
2023/09/02 08:10:47;;;;;;;9.27;5.10;;;16.20;99.90;;;;;;5134463;28;20480;-40
2023/09/02 08:13:13;;;;;;;12.57;5.30;;;16.30;99.90;;;;;;5134184;28;20515;-40
2023/09/02 08:15:39;;;;;;;11.50;5.45;;;16.30;99.90;;;;;;5116312;28;20047;-40
2023/09/02 08:18:05;;;;;;;8.93;4.45;;;16.40;99.90;;;;;;5134247;28;20039;-40
2023/09/02 08:20:31;;;;;;;9.52;5.13;;;16.40;99.90;;;;;;5134593;28;20392;-40
2023/09/02 08:22:57;;;;;;;10.20;5.07;;;16.50;99.90;;;;;;5134196;28;20045;-40
2023/09/02 08:25:23;;;;;;;8.23;4.50;;;16.50;99.90;;;;;;5134629;28;20078;-40
2023/09/02 08:27:49;;;;;;;9.98;4.95;;;16.50;99.90;;;;;;5115970;28;20116;-40
2023/09/02 08:30:15;;;;;;;8.10;4.47;;;16.60;99.90;;;;;;5134341;28;20043;-40
2023/09/02 08:32:41;;;;;;;8.52;4.05;;;16.60;99.90;;;;;;5133989;28;20681;-40
2023/09/02 08:35:08;;;;;;;6.90;3.63;;;16.70;99.90;;;;;;5134232;28;20126;-39
2023/09/02 08:37:34;;;;;;;6.97;3.63;;;16.70;99.90;;;;;;5134236;28;20051;-40
2023/09/02 08:40:01;;;;;;;7.00;3.65;;;16.80;99.90;;;;;;5134174;28;20043;-40
2023/09/02 08:42:28;;;;;;;6.80;3.40;;;16.90;99.90;;;;;;5133910;28;20043;-40
2023/09/02 08:44:55;;;;;;;;;;;16.90;99.90;;;;;;5134485;28;20078;-40
2023/09/02 08:47:22;;;;;;;10.40;3.42;;;16.90;99.90;;;;;;5134055;28;20325;-40
2023/09/02 08:49:49;;;;;;;8.13;3.60;;;16.90;99.90;;;;;;5134115;28;20047;-40
2023/09/02 08:52:15;;;;;;;7.93;3.08;;;17.00;99.90;;;;;;5134037;28;20472;-40
2023/09/02 08:54:43;;;;;;;6.28;2.85;;;17.00;99.90;;;;;;5134045;28;20184;-40
2023/09/02 08:57:11;;;;;;;10.23;3.90;;;17.10;99.90;;;;;;5115769;28;20104;-40
2023/09/02 08:59:38;;;;;;;7.70;3.55;;;17.20;99.90;;;;;;5133926;28;20039;-40
2023/09/02 09:02:05;;;;;;;6.57;3.00;;;17.20;99.90;;;;;;5133664;28;20043;-40
2023/09/02 09:04:35;;;;;;;8.25;3.50;;;17.20;99.90;;;;;;5134453;28;20092;-40
2023/09/02 09:07:05;;;;;;;6.25;3.05;;;17.20;99.90;;;;;;5134559;27;20043;-40
2023/09/02 09:09:42;;;;;;;6.75;3.13;;;17.20;99.90;;;;;;5137523;27;20088;-40
2023/09/02 09:12:08;;;;;;;5.88;2.80;;;17.30;99.90;;;;;;5137746;27;20043;-40
2023/09/02 09:14:41;;;;;;;6.47;3.22;;;17.30;99.90;;;;;;5119137;27;20126;-40
2023/09/02 09:17:07;;;;;;;6.68;3.00;;;17.30;99.90;;;;;;5137469;27;20094;-39
2023/09/02 09:19:33;;;;;;;8.00;3.80;;;17.40;99.90;;;;;;5119030;27;20051;-40
2023/09/02 09:22:02;;;;;;;7.30;3.35;;;17.40;99.90;;;;;;5137347;27;20126;-40
2023/09/02 09:24:28;;;;;;;7.18;2.75;;;17.40;99.90;;;;;;5137354;27;20043;-40
2023/09/02 09:26:58;;;;;;;7.53;3.88;;;17.40;99.90;;;;;;5136994;27;20575;-40
2023/09/02 09:29:23;;;;;;;7.00;3.50;;;17.50;99.90;;;;;;5137114;27;20550;-40
2023/09/02 09:32:06;;;;;;;8.75;2.92;;;17.50;99.90;;;;;;5137213;27;20047;-40
2023/09/02 09:34:42;;;;;;;8.32;3.35;;;17.60;99.90;;;;;;5137224;27;20122;-40
2023/09/02 09:37:09;;;;;;;5.80;3.05;;;17.60;99.90;;;;;;5137137;27;20479;-40
2023/09/02 09:39:43;;;;;;;8.40;3.55;;;17.60;99.90;;;;;;5118683;27;20082;-41
2023/09/02 09:42:11;;;;;;;6.85;3.33;;;17.70;99.90;;;;;;5118942;27;20054;-41
2023/09/02 09:44:54;;;;;;;6.22;3.05;;;17.70;99.90;;;;;;5137249;27;20389;-40
2023/09/02 09:47:21;;;;;;;8.10;3.22;;;17.80;99.90;;;;;;5137053;27;20082;-40
2023/09/02 09:49:49;;;;;;;6.40;3.47;;;17.80;99.90;;;;;;5136656;27;20043;-40
2023/09/02 09:52:16;;;;;;;8.95;3.95;;;17.90;99.90;;;;;;5153036;27;20051;-40
2023/09/02 09:54:47;;;;;;;5.85;2.90;;;17.90;99.90;;;;;;5136729;27;20384;-40
2023/09/02 09:57:38;;;;;;;7.15;3.40;;;18.00;99.90;;;;;;5136715;27;20043;-40
2023/09/02 10:00:06;;;;;;;9.75;3.75;;;18.00;99.90;;;;;;5136637;27;20441;-40
2023/09/02 10:02:32;;;;;;;6.40;3.10;;;18.10;99.90;;;;;;5136171;27;20192;-40
2023/09/02 10:04:59;;;;;;;8.70;4.38;;;18.10;99.90;;;;;;5136527;27;20130;-41
2023/09/02 10:07:27;;;;;;;6.85;3.88;;;18.20;99.90;;;;;;5136498;27;20039;-40
2023/09/02 10:09:54;;;;;;;6.00;3.22;;;18.30;99.90;;;;;;5136394;27;20502;-40
2023/09/02 10:12:20;;;;;;;7.13;3.65;;;18.40;99.90;;;;;;5136347;27;20039;-40
2023/09/02 10:14:48;;;;;;;7.15;4.07;;;18.40;99.90;;;;;;5136143;27;20035;-40
2023/09/02 10:17:15;;;;;;;8.65;3.88;;;18.50;99.90;;;;;;5136076;27;20143;-41
2023/09/02 10:19:42;;;;;;;6.97;3.50;;;18.60;99.90;;;;;;5135929;27;20544;-40
2023/09/02 10:22:08;;;;;;;6.55;3.60;;;18.60;99.90;;;;;;5136110;27;20047;-40
2023/09/02 10:24:39;;;;;;;7.18;3.63;;;18.70;99.90;;;;;;5136001;27;20472;-40
2023/09/02 10:27:11;;;;;;;7.82;3.63;;;18.80;99.90;;;;;;5136041;27;20064;-40
2023/09/02 10:29:45;;;;;;;5.68;3.60;;;18.80;99.90;;;;;;5135973;27;20082;-40
2023/09/02 10:32:13;;;;;;;6.80;3.40;;;18.90;99.90;;;;;;5136006;27;20126;-40
2023/09/02 10:34:53;;;;;;;7.28;3.35;;;19.00;99.90;;;;;;5135895;27;20116;-40
2023/09/02 10:37:24;;;;;;;6.93;3.95;;;19.10;99.90;;;;;;5135944;27;20051;-40
2023/09/02 10:40:07;;;;;;;6.53;3.65;;;19.20;99.90;;;;;;5117856;27;20051;-40
2023/09/02 10:42:34;;;;;;;8.43;3.58;;;19.30;99.90;;;;;;5136017;27;20129;-40
2023/09/02 10:45:00;;;;;;;6.53;3.42;;;19.40;99.90;;;;;;5117476;27;20415;-40
2023/09/02 10:47:26;;;;;;;;;;;19.50;99.90;;;;;;5136082;27;20043;-40
2023/09/02 10:49:53;;;;;;;6.90;3.28;;;19.60;99.90;;;;;;5135740;27;19925;-40
2023/09/02 10:52:18;;;;;;;5.57;2.90;;;19.70;99.90;;;;;;5135580;27;20054;-40
2023/09/02 10:55:03;;;;;;;6.18;2.80;;;19.70;99.90;;;;;;5135175;27;20478;-40
2023/09/02 10:57:43;;;;;;;5.43;2.70;;;19.70;99.90;;;;;;5135398;27;20043;-40
2023/09/02 11:00:19;;;;;;;6.47;3.03;;;19.80;99.90;;;;;;5135347;27;20043;-40
2023/09/02 11:02:47;;;;;;;5.97;3.07;;;20.00;99.90;;;;;;5135337;27;20061;-40
2023/09/02 11:05:13;;;;;;;5.75;3.22;;;20.10;99.90;;;;;;5117183;27;20495;-40
2023/09/02 11:07:40;;;;;;;5.95;2.50;;;20.20;99.90;;;;;;5135243;27;20094;-40
2023/09/02 11:10:07;;;;;;;4.72;2.33;;;20.30;99.90;;;;;;5135213;27;20039;-40
2023/09/02 11:12:34;;;;;;;5.28;2.55;;;20.40;99.90;;;;;;5117040;27;20047;-40
2023/09/02 11:15:08;;;;;;;;;;;20.50;99.90;;;;;;5135598;27;20103;-40
2023/09/02 11:17:41;;;;;;;4.53;2.40;;;20.70;99.90;;;;;;5134821;27;19919;-41
2023/09/02 11:20:09;;;;;;;6.22;2.55;;;20.80;99.90;;;;;;5135081;27;20069;-41
2023/09/02 11:22:51;;;;;;;4.68;2.17;;;20.80;99.90;;;;;;5134855;27;20057;-40
2023/09/02 11:25:38;;;;;;;4.85;2.33;;;20.70;99.90;;;;;;5117080;27;20051;-40
2023/09/02 11:28:14;;;;;;;4.50;2.10;;;20.50;99.90;;;;;;5134748;27;20065;-40
2023/09/02 11:31:00;;;;;;;5.65;2.30;;;20.40;99.90;;;;;;5134603;27;20050;-41
2023/09/02 11:33:25;;;;;;;5.85;2.70;;;20.20;99.90;;;;;;5134789;27;20403;-40
2023/09/02 11:35:52;;;;;;;4.38;2.03;;;20.30;99.90;;;;;;5135073;27;20043;-40
2023/09/02 11:38:19;;;;;;;6.70;2.95;;;20.40;99.90;;;;;;5116704;27;20046;-41
2023/09/02 11:40:46;;;;;;;5.75;2.50;;;20.50;99.90;;;;;;5116550;27;20050;-41
2023/09/02 11:43:18;;;;;;;5.00;2.15;;;20.70;99.90;;;;;;5134586;27;20089;-40
2023/09/02 11:45:45;;;;;;;4.95;2.10;;;20.90;99.90;;;;;;5134906;27;20403;-40
2023/09/02 11:48:11;;;;;;;5.80;1.92;;;21.00;99.90;;;;;;5134370;27;20487;-41
2023/09/02 11:50:39;;;;;;;6.60;2.10;;;20.90;99.90;;;;;;5134664;27;20058;-41
2023/09/02 11:53:06;;;;;;;4.30;1.92;;;20.80;99.90;;;;;;5134408;28;20078;-41
2023/09/02 11:55:31;;;;;;;;;;;20.70;99.90;;;;;;5135045;28;20047;-41
2023/09/02 11:58:05;;;;;;;6.28;1.80;;;20.50;99.90;;;;;;5134549;28;19919;-41
2023/09/02 12:00:30;;;;;;;3.30;1.30;;;20.40;99.90;;;;;;5134623;28;20047;-41
2023/09/02 12:02:59;;;;;;;3.50;1.80;;;20.30;99.90;;;;;;5116042;28;20061;-41
2023/09/02 12:05:25;;;;;;;4.40;1.20;;;20.20;99.90;;;;;;5134407;28;20396;-41
2023/09/02 12:07:51;;;;;;;4.72;1.40;;;20.30;99.90;;;;;;5115940;28;20054;-41
2023/09/02 12:10:17;;;;;;;4.80;1.90;;;20.40;99.90;;;;;;5134587;28;20078;-41
2023/09/02 12:12:47;;;;;;;;;;;20.60;99.90;;;;;;5116854;28;20066;-40
2023/09/02 12:15:17;;;;;;;4.95;1.20;;;20.70;99.90;;;;;;5134446;28;19942;-41
2023/09/02 12:17:45;;;;;;;2.58;1.00;;;20.90;99.90;;;;;;5134335;28;20103;-40
2023/09/02 12:20:12;;;;;;;4.28;1.40;;;21.00;99.90;;;;;;5134085;28;20043;-41
2023/09/02 12:22:39;;;;;;;3.75;1.70;;;21.10;99.90;;;;;;5134276;28;20039;-41
2023/09/02 12:25:22;;;;;;;4.65;1.35;;;21.00;99.90;;;;;;5134625;28;20118;-41
2023/09/02 12:27:48;;;;;;;4.15;1.33;;;21.10;99.90;;;;;;5116133;28;20126;-41
2023/09/02 12:30:26;;;;;;;2.42;1.05;;;21.10;99.90;;;;;;5115902;28;20430;-41
2023/09/02 12:32:51;;;;;;;3.33;1.38;;;21.10;99.90;;;;;;5134078;28;20039;-41
2023/09/02 12:35:17;;;;;;;4.03;1.38;;;21.00;99.90;;;;;;5116049;28;20054;-41
2023/09/02 12:37:42;;;;;;;3.67;1.13;;;20.80;99.90;;;;;;5134137;28;20043;-41
2023/09/02 12:40:10;;;;;;;3.38;1.27;;;20.80;99.90;;;;;;5134041;28;20043;-41
2023/09/02 12:42:36;;;;;;;2.90;1.00;;;20.80;99.90;;;;;;5137392;27;20035;-41
2023/09/02 12:45:05;;;;;;;2.92;1.00;;;20.90;99.90;;;;;;5137815;27;20050;-41
2023/09/02 12:47:32;;;;;;;2.85;1.00;;;21.00;99.90;;;;;;5137836;27;20062;-40
2023/09/02 12:50:01;;;;;;;2.60;1.05;;;21.10;99.90;;;;;;5138148;27;20047;-41